AirNav   Everest Fuels
 
 715 users online  

7CA9 River Meadow Farm Heliport
Rutherford, California, USA

GOING TO RUTHERFORD?


FAA INFORMATION EFFECTIVE 21 MAY 2020

Location

FAA Identifier: 7CA9
Lat/Long: 38-27-45.6000N 122-24-52.8000W
38-27.760000N 122-24.880000W
38.4626667,-122.4146667
(estimated)
Elevation: 146 ft. / 45 m (estimated)
Variation: 16E (1985)
From city: 1 mile SE of RUTHERFORD, CA
Time zone: UTC -7 (UTC -8 during Standard Time)
Zip code: 94558

Heliport Operations

Heliport use: Private use. Permission required prior to landing
Activation date: 01/1979
Control tower: no
ARTCC: OAKLAND CENTER
FSS: OAKLAND FLIGHT SERVICE STATION
Attendance: UNATNDD
Wind indicator: yes
Segmented circle: no

Heliport Communications

WX AWOS-3P at O69 (15 nm SW): 132.325 (707-773-1529)
WX ASOS at APC (16 nm SE): PHONE 707-252-7916
WX ASOS at STS (19 nm W): 120.55 (707-573-8393)

Nearby radio navigation aids

VOR radial/distance  VOR name  Freq  Var
SGDr336/17.1SCAGGS ISLAND VORTAC112.1017E
STSr082/18.8SANTA ROSA VOR/DME113.0016E
CCRr308/30.5CONCORD VOR/DME117.0017E
PYEr026/31.4POINT REYES VOR/DME113.7017E
SAUr351/36.8SAUSALITO VOR/DME116.2017E

Heliport Services

Runway Information

Helipad H1

Dimensions: 65 x 65 ft. / 20 x 20 m
Surface: concrete
Latitude: 38-27.760000N
Longitude: 122-24.880000W
Elevation: 146.0 ft.
Traffic pattern: leftleft

Heliport Ownership and Management from official FAA records

Ownership: Privately-owned
Owner: DIANE WILSEY
2590 JACKSON STREET
SAN FRANCISCO, CA 94115
Phone 415-922-2875

Heliport Operational Statistics

Aircraft based on the field: 1
Helicopters: 1
    

Additional Remarks

FOR CD CTC OAKLAND ARTCC AT 510-745-3380.

Instrument Procedures

There are no published instrument procedures at 7CA9.

Some nearby airports with instrument procedures:

O69 - Petaluma Municipal Airport (15 nm SW)
KAPC - Napa County Airport (16 nm SE)
KSTS - Charles M Schulz - Sonoma County Airport (19 nm W)
KDVO - Gnoss Field Airport (20 nm S)
KVCB - Nut Tree Airport (22 nm E)
 
Loc | Ops | Rwys | IFR | FBO | Links
Com | Nav | Svcs | Stats | Notes

Sonoma Jet Center
 
Area around 7CA9 (River Meadow Farm Heliport)
 
Road maps at: MapQuest Bing Google
 
Aerial photo
No photo
 
Sectional chart

 
Airport distance calculator
Flying to River Meadow Farm Heliport? Find the distance to fly.

From to 7CA9

Sunrise and sunset
Times for 30-May-2020
 Local
(UTC-7)
 Zulu
(UTC)
Morning civil twilight05:1812:18
Sunrise05:4912:49
Sunset20:2603:26
Evening civil twilight20:5703:57

Current date and time
Zulu (UTC)  30-May-2020 12:39:36
Local (UTC-7)  30-May-2020 05:39:36
 
METAR
KO69 
15nm SW 
301215Z AUTO 34003KT 7SM BKN025 OVC030 16/15 A2991 RMK A01
KAPC 
17nm S 
301154Z AUTO 27008KT 10SM BKN045 OVC110 16/12 A2989 RMK AO2 SLP113 T01610122 10167 20161 53004
KSTS 
19nm W 
707-573-8393
301209Z AUTO 10003KT 10SM VCTS BKN021 BKN028 OVC043 15/14 A2991 RMK AO2 TSE03 T01500139
KDVO 
20nm S 
301215Z AUTO 00000KT 10SM BKN027 BKN032 OVC037 16/14 A2991 RMK AO2
KVCB 
22nm E 
301153Z AUTO 22009KT 10SM BKN100 17/11 A2989 RMK AO2 SLP119 T01720106 10178 20167 53004
KSUU 
26nm SE 
301158Z AUTO 23009KT 10SM OVC100 17/12 A2989 RMK AO2 LTG DSNT N AND S SLP128 T01670116 10168 20158 53007 $
KEDU 
30nm E 
301215Z AUTO 20005KT 10SM BKN100 17/11 A2990 RMK AO1
TAF
KAPC 
17nm S 
301127Z 3012/3112 24008KT P6SM VCTS SCT015 SCT040CB TEMPO 3012/3015 -TSRA BKN015 BKN040CB FM301600 22010KT P6SM VCSH SCT025 BKN050 FM302000 21015G20KT P6SM FEW030 BKN050 FM310300 24012G18KT P6SM FEW025 SCT040 FM310500 26006KT P6SM BKN020
KSTS 
19nm W 
301127Z 3012/3112 VRB04KT P6SM VCTS BKN015 BKN040CB TEMPO 3012/3015 -TSRA BKN012 BKN040CB FM301500 VRB03KT P6SM -SHRA BKN020 FM301900 20007KT P6SM VCSH SCT020 BKN050 FM302200 23009KT P6SM FEW020 SCT040 BKN050 FM310200 VRB04KT P6SM BKN025 FM310600 VRB03KT P6SM BKN015
NOTAMs
Click for the latest NOTAMs
NOTAMs are issued by the DoD/FAA and will open in a separate window not controlled by AirNav.

 

 
 

Would you like to see your business listed on this page?

 If your business provides an interesting product or service to pilots, flight crews, aircraft, or users of the River Meadow Farm Heliport, you should consider listing it here.  To start the listing process, click on the button below
 
Add a business
 

Other Pages about River Meadow Farm Heliport

Update a link
 
Copyright © AirNav, LLC. All rights reserved. Privacy Policy  Contact